sensor_id;sensor_type;location;lat;lon;timestamp;pressure;altitude;pressure_sealevel;temperature;humidity
77685;BME280;66844;46.092;18.268;2023-12-20T00:00:25;99315.84;;;5.15;100.00
77685;BME280;66844;46.092;18.268;2023-12-20T00:00:57;99313.34;;;5.12;100.00
77685;BME280;66844;46.092;18.268;2023-12-20T00:01:29;99310.69;;;5.12;100.00
77685;BME280;66844;46.092;18.268;2023-12-20T00:02:01;99312.44;;;5.13;100.00
77685;BME280;66844;46.092;18.268;2023-12-20T00:02:34;99311.50;;;5.14;100.00
77685;BME280;66844;46.092;18.268;2023-12-20T00:03:06;99313.16;;;5.16;100.00
77685;BME280;66844;46.092;18.268;2023-12-20T00:03:38;99313.22;;;5.15;100.00
77685;BME280;66844;46.092;18.268;2023-12-20T00:04:13;99311.59;;;5.11;100.00
77685;BME280;66844;46.092;18.268;2023-12-20T00:04:45;99313.34;;;5.12;100.00
77685;BME280;66844;46.092;18.268;2023-12-20T00:05:18;99309.84;;;5.11;100.00
77685;BME280;66844;46.092;18.268;2023-12-20T00:05:50;99304.44;;;5.14;100.00
77685;BME280;66844;46.092;18.268;2023-12-20T00:06:22;99307.81;;;5.18;100.00
77685;BME280;66844;46.092;18.268;2023-12-20T00:06:54;99313.16;;;5.16;100.00
77685;BME280;66844;46.092;18.268;2023-12-20T00:07:26;99305.13;;;5.19;100.00
77685;BME280;66844;46.092;18.268;2023-12-20T00:07:58;99309.50;;;5.20;100.00
77685;BME280;66844;46.092;18.268;2023-12-20T00:08:31;99307.72;;;5.21;100.00
77685;BME280;66844;46.092;18.268;2023-12-20T00:09:02;99302.38;;;5.22;100.00
77685;BME280;66844;46.092;18.268;2023-12-20T00:09:34;99304.16;;;5.22;100.00
77685;BME280;66844;46.092;18.268;2023-12-20T00:10:07;99306.00;;;5.20;100.00
77685;BME280;66844;46.092;18.268;2023-12-20T00:10:39;99300.72;;;5.20;100.00
77685;BME280;66844;46.092;18.268;2023-12-20T00:11:11;99306.91;;;5.19;100.00
77685;BME280;66844;46.092;18.268;2023-12-20T00:11:43;99296.19;;;5.23;100.00
77685;BME280;66844;46.092;18.268;2023-12-20T00:12:14;99297.06;;;5.24;99.81
77685;BME280;66844;46.092;18.268;2023-12-20T00:12:46;99296.09;;;5.25;99.86
77685;BME280;66844;46.092;18.268;2023-12-20T00:13:18;99296.97;;;5.25;100.00
77685;BME280;66844;46.092;18.268;2023-12-20T00:13:51;99292.50;;;5.27;100.00
77685;BME280;66844;46.092;18.268;2023-12-20T00:14:23;99291.41;;;5.33;100.00
77685;BME280;66844;46.092;18.268;2023-12-20T00:14:55;99293.97;;;5.34;100.00
77685;BME280;66844;46.092;18.268;2023-12-20T00:15:27;99299.19;;;5.36;100.00
77685;BME280;66844;46.092;18.268;2023-12-20T00:15:59;99285.94;;;5.37;100.00
77685;BME280;66844;46.092;18.268;2023-12-20T00:16:31;99292.94;;;5.38;100.00
77685;BME280;66844;46.092;18.268;2023-12-20T00:17:03;99291.78;;;5.46;100.00
77685;BME280;66844;46.092;18.268;2023-12-20T00:17:35;99285.34;;;5.53;99.39
77685;BME280;66844;46.092;18.268;2023-12-20T00:18:07;99282.69;;;5.53;99.23
77685;BME280;66844;46.092;18.268;2023-12-20T00:18:39;99281.09;;;5.49;98.83
77685;BME280;66844;46.092;18.268;2023-12-20T00:19:11;99287.28;;;5.48;99.58
77685;BME280;66844;46.092;18.268;2023-12-20T00:19:43;99280.38;;;5.45;99.48
77685;BME280;66844;46.092;18.268;2023-12-20T00:20:15;99282.94;;;5.47;99.31
77685;BME280;66844;46.092;18.268;2023-12-20T00:20:47;99280.38;;;5.45;99.43
77685;BME280;66844;46.092;18.268;2023-12-20T00:21:19;99276.94;;;5.43;98.76
77685;BME280;66844;46.092;18.268;2023-12-20T00:21:51;99280.53;;;5.41;99.23
77685;BME280;66844;46.092;18.268;2023-12-20T00:22:23;99267.44;;;5.39;98.82
77685;BME280;66844;46.092;18.268;2023-12-20T00:22:57;99275.34;;;5.39;99.38
77685;BME280;66844;46.092;18.268;2023-12-20T00:23:32;99276.31;;;5.36;98.83
77685;BME280;66844;46.092;18.268;2023-12-20T00:24:04;99278.75;;;5.41;99.67
77685;BME280;66844;46.092;18.268;2023-12-20T00:24:36;99271.84;;;5.38;99.58
77685;BME280;66844;46.092;18.268;2023-12-20T00:25:08;99273.66;;;5.36;99.36
77685;BME280;66844;46.092;18.268;2023-12-20T00:25:41;99275.44;;;5.36;99.09
77685;BME280;66844;46.092;18.268;2023-12-20T00:26:13;99278.22;;;5.33;99.12
77685;BME280;66844;46.092;18.268;2023-12-20T00:26:44;99268.81;;;5.26;99.25
77685;BME280;66844;46.092;18.268;2023-12-20T00:27:17;99267.19;;;5.23;99.05
77685;BME280;66844;46.092;18.268;2023-12-20T00:27:48;99271.63;;;5.21;99.76
77685;BME280;66844;46.092;18.268;2023-12-20T00:28:20;99275.34;;;5.17;99.34
77685;BME280;66844;46.092;18.268;2023-12-20T00:28:52;99273.75;;;5.13;99.99
77685;BME280;66844;46.092;18.268;2023-12-20T00:29:25;99272.13;;;5.09;99.72
77685;BME280;66844;46.092;18.268;2023-12-20T00:29:57;99267.09;;;5.03;99.68
77685;BME280;66844;46.092;18.268;2023-12-20T00:30:29;99269.94;;;4.99;99.42
77685;BME280;66844;46.092;18.268;2023-12-20T00:31:01;99267.28;;;4.99;99.79
77685;BME280;66844;46.092;18.268;2023-12-20T00:31:33;99275.97;;;5.01;100.00
77685;BME280;66844;46.092;18.268;2023-12-20T00:32:06;99262.94;;;4.98;100.00
77685;BME280;66844;46.092;18.268;2023-12-20T00:32:38;99268.31;;;4.95;100.00
77685;BME280;66844;46.092;18.268;2023-12-20T00:33:11;99266.31;;;5.01;100.00
77685;BME280;66844;46.092;18.268;2023-12-20T00:33:42;99266.31;;;5.01;100.00
77685;BME280;66844;46.092;18.268;2023-12-20T00:34:16;99265.44;;;5.01;100.00
77685;BME280;66844;46.092;18.268;2023-12-20T00:34:48;99257.66;;;4.98;100.00
77685;BME280;66844;46.092;18.268;2023-12-20T00:35:20;99253.34;;;4.95;100.00
77685;BME280;66844;46.092;18.268;2023-12-20T00:35:52;99262.19;;;4.94;100.00
77685;BME280;66844;46.092;18.268;2023-12-20T00:36:24;99260.28;;;4.98;100.00
77685;BME280;66844;46.092;18.268;2023-12-20T00:36:55;99262.06;;;4.97;100.00
77685;BME280;66844;46.092;18.268;2023-12-20T00:37:28;99260.28;;;4.98;100.00
77685;BME280;66844;46.092;18.268;2023-12-20T00:38:00;99260.41;;;4.95;100.00
77685;BME280;66844;46.092;18.268;2023-12-20T00:38:32;99255.19;;;4.93;100.00
77685;BME280;66844;46.092;18.268;2023-12-20T00:39:04;99253.41;;;4.94;100.00
77685;BME280;66844;46.092;18.268;2023-12-20T00:39:36;99254.19;;;4.96;100.00
77685;BME280;66844;46.092;18.268;2023-12-20T00:40:09;99248.16;;;4.94;100.00
77685;BME280;66844;46.092;18.268;2023-12-20T00:40:41;99255.31;;;4.90;100.00
77685;BME280;66844;46.092;18.268;2023-12-20T00:41:13;99249.31;;;4.86;100.00
77685;BME280;66844;46.092;18.268;2023-12-20T00:41:45;99243.34;;;4.81;100.00
77685;BME280;66844;46.092;18.268;2023-12-20T00:42:17;99247.69;;;4.82;100.00
77685;BME280;66844;46.092;18.268;2023-12-20T00:42:49;99251.31;;;4.80;100.00
77685;BME280;66844;46.092;18.268;2023-12-20T00:43:21;99247.00;;;4.77;100.00
77685;BME280;66844;46.092;18.268;2023-12-20T00:43:53;99241.84;;;4.74;100.00
77685;BME280;66844;46.092;18.268;2023-12-20T00:44:25;99244.44;;;4.76;100.00
77685;BME280;66844;46.092;18.268;2023-12-20T00:44:57;99241.84;;;4.74;100.00
77685;BME280;66844;46.092;18.268;2023-12-20T00:45:29;99237.56;;;4.72;100.00
77685;BME280;66844;46.092;18.268;2023-12-20T00:46:01;99240.22;;;4.72;100.00
77685;BME280;66844;46.092;18.268;2023-12-20T00:46:33;99233.34;;;4.68;100.00
77685;BME280;66844;46.092;18.268;2023-12-20T00:47:05;99243.75;;;4.71;100.00
77685;BME280;66844;46.092;18.268;2023-12-20T00:47:37;99234.06;;;4.71;100.00
77685;BME280;66844;46.092;18.268;2023-12-20T00:48:09;99238.47;;;4.71;100.00
77685;BME280;66844;46.092;18.268;2023-12-20T00:48:41;99234.25;;;4.67;100.00
77685;BME280;66844;46.092;18.268;2023-12-20T00:49:13;99234.28;;;4.65;100.00
77685;BME280;66844;46.092;18.268;2023-12-20T00:49:45;99238.53;;;4.69;100.00
77685;BME280;66844;46.092;18.268;2023-12-20T00:50:17;99236.09;;;4.65;100.00
77685;BME280;66844;46.092;18.268;2023-12-20T00:50:50;99237.91;;;4.63;100.00
77685;BME280;66844;46.092;18.268;2023-12-20T00:51:22;99229.13;;;4.62;100.00
77685;BME280;66844;46.092;18.268;2023-12-20T00:51:54;99239.63;;;4.64;100.00
77685;BME280;66844;46.092;18.268;2023-12-20T00:52:26;99234.41;;;4.62;100.00
77685;BME280;66844;46.092;18.268;2023-12-20T00:52:58;99234.41;;;4.62;100.00
77685;BME280;66844;46.092;18.268;2023-12-20T00:53:30;99235.22;;;4.64;100.00
77685;BME280;66844;46.092;18.268;2023-12-20T00:54:02;99240.53;;;4.63;100.00
77685;BME280;66844;46.092;18.268;2023-12-20T00:54:34;99231.72;;;4.64;100.00
77685;BME280;66844;46.092;18.268;2023-12-20T00:55:06;99230.75;;;4.66;100.00
77685;BME280;66844;46.092;18.268;2023-12-20T00:55:38;99226.38;;;4.65;100.00
77685;BME280;66844;46.092;18.268;2023-12-20T00:56:10;99226.09;;;4.73;100.00
77685;BME280;66844;46.092;18.268;2023-12-20T00:56:42;99225.13;;;4.75;100.00
77685;BME280;66844;46.092;18.268;2023-12-20T00:57:14;99222.50;;;4.75;100.00
77685;BME280;66844;46.092;18.268;2023-12-20T00:57:46;99223.41;;;4.74;100.00
77685;BME280;66844;46.092;18.268;2023-12-20T00:58:19;99225.94;;;4.77;100.00
77685;BME280;66844;46.092;18.268;2023-12-20T00:58:51;99220.66;;;4.77;100.00
77685;BME280;66844;46.092;18.268;2023-12-20T00:59:23;99219.75;;;4.78;100.00
77685;BME280;66844;46.092;18.268;2023-12-20T00:59:55;99221.56;;;4.76;100.00
77685;BME280;66844;46.092;18.268;2023-12-20T01:00:27;99216.19;;;4.79;100.00
77685;BME280;66844;46.092;18.268;2023-12-20T01:00:59;99218.84;;;4.79;100.00
77685;BME280;66844;46.092;18.268;2023-12-20T01:01:31;99220.59;;;4.79;100.00
77685;BME280;66844;46.092;18.268;2023-12-20T01:02:04;99219.69;;;4.80;100.00
77685;BME280;66844;46.092;18.268;2023-12-20T01:02:36;99216.25;;;4.78;100.00
77685;BME280;66844;46.092;18.268;2023-12-20T01:03:08;99222.50;;;4.75;100.00
77685;BME280;66844;46.092;18.268;2023-12-20T01:03:40;99216.28;;;4.76;100.00
77685;BME280;66844;46.092;18.268;2023-12-20T01:04:12;99228.50;;;4.79;100.00
77685;BME280;66844;46.092;18.268;2023-12-20T01:04:45;99223.16;;;4.80;100.00
77685;BME280;66844;46.092;18.268;2023-12-20T01:05:18;99212.75;;;4.77;100.00
77685;BME280;66844;46.092;18.268;2023-12-20T01:05:51;99216.19;;;4.79;100.00
77685;BME280;66844;46.092;18.268;2023-12-20T01:06:23;99220.66;;;4.77;100.00
77685;BME280;66844;46.092;18.268;2023-12-20T01:06:55;99222.44;;;4.77;100.00
77685;BME280;66844;46.092;18.268;2023-12-20T01:07:27;99212.75;;;4.77;100.00
77685;BME280;66844;46.092;18.268;2023-12-20T01:07:59;99224.19;;;4.76;100.00
77685;BME280;66844;46.092;18.268;2023-12-20T01:08:31;99211.03;;;4.76;100.00
77685;BME280;66844;46.092;18.268;2023-12-20T01:09:03;99213.66;;;4.76;100.00
77685;BME280;66844;46.092;18.268;2023-12-20T01:09:35;99212.19;;;4.69;100.00
77685;BME280;66844;46.092;18.268;2023-12-20T01:10:07;99209.53;;;4.69;100.00
77685;BME280;66844;46.092;18.268;2023-12-20T01:10:39;99214.03;;;4.67;100.00
77685;BME280;66844;46.092;18.268;2023-12-20T01:11:12;99217.56;;;4.66;100.00
77685;BME280;66844;46.092;18.268;2023-12-20T01:11:44;99207.91;;;4.67;100.00
77685;BME280;66844;46.092;18.268;2023-12-20T01:12:18;99215.81;;;4.67;100.00
77685;BME280;66844;46.092;18.268;2023-12-20T01:12:51;99218.31;;;4.70;100.00
77685;BME280;66844;46.092;18.268;2023-12-20T01:13:23;99218.38;;;4.68;100.00
77685;BME280;66844;46.092;18.268;2023-12-20T01:13:55;99211.16;;;4.73;100.00
77685;BME280;66844;46.092;18.268;2023-12-20T01:14:27;99213.00;;;4.71;100.00
77685;BME280;66844;46.092;18.268;2023-12-20T01:14:59;99216.38;;;4.75;100.00
77685;BME280;66844;46.092;18.268;2023-12-20T01:15:31;99212.69;;;4.79;100.00
77685;BME280;66844;46.092;18.268;2023-12-20T01:16:03;99206.56;;;4.78;100.00
77685;BME280;66844;46.092;18.268;2023-12-20T01:16:35;99211.88;;;4.77;100.00
77685;BME280;66844;46.092;18.268;2023-12-20T01:17:07;99210.19;;;4.76;100.00
77685;BME280;66844;46.092;18.268;2023-12-20T01:17:39;99214.53;;;4.77;100.00
77685;BME280;66844;46.092;18.268;2023-12-20T01:18:11;99205.75;;;4.76;100.00
77685;BME280;66844;46.092;18.268;2023-12-20T01:18:43;99202.34;;;4.74;100.00
77685;BME280;66844;46.092;18.268;2023-12-20T01:19:15;99205.88;;;4.73;100.00
77685;BME280;66844;46.092;18.268;2023-12-20T01:19:48;99200.59;;;4.73;100.00
77685;BME280;66844;46.092;18.268;2023-12-20T01:20:20;99207.44;;;4.79;100.00
77685;BME280;66844;46.092;18.268;2023-12-20T01:20:52;99203.06;;;4.78;100.00
77685;BME280;66844;46.092;18.268;2023-12-20T01:21:24;99203.97;;;4.77;100.00
77685;BME280;66844;46.092;18.268;2023-12-20T01:21:56;99207.31;;;4.82;100.00
77685;BME280;66844;46.092;18.268;2023-12-20T01:22:28;99197.63;;;4.82;100.00
77685;BME280;66844;46.092;18.268;2023-12-20T01:23:00;99205.53;;;4.82;100.00
77685;BME280;66844;46.092;18.268;2023-12-20T01:23:32;99198.53;;;4.81;100.00
77685;BME280;66844;46.092;18.268;2023-12-20T01:24:04;99196.72;;;4.83;100.00
77685;BME280;66844;46.092;18.268;2023-12-20T01:24:36;99210.72;;;4.84;100.00
77685;BME280;66844;46.092;18.268;2023-12-20T01:25:08;99202.00;;;4.83;100.00
77685;BME280;66844;46.092;18.268;2023-12-20T01:25:40;99198.41;;;4.84;100.00
77685;BME280;66844;46.092;18.268;2023-12-20T01:26:12;99192.09;;;4.88;100.00
77685;BME280;66844;46.092;18.268;2023-12-20T01:26:44;99200.00;;;4.88;100.00
77685;BME280;66844;46.092;18.268;2023-12-20T01:27:16;99192.19;;;4.87;100.00
77685;BME280;66844;46.092;18.268;2023-12-20T01:27:48;99194.63;;;4.92;100.00
77685;BME280;66844;46.092;18.268;2023-12-20T01:28:20;99190.22;;;4.92;100.00
77685;BME280;66844;46.092;18.268;2023-12-20T01:28:52;99191.03;;;4.94;100.00
77685;BME280;66844;46.092;18.268;2023-12-20T01:29:24;99191.06;;;4.93;100.00
77685;BME280;66844;46.092;18.268;2023-12-20T01:29:56;99191.94;;;4.93;100.00
77685;BME280;66844;46.092;18.268;2023-12-20T01:30:28;99188.31;;;4.96;100.00
77685;BME280;66844;46.092;18.268;2023-12-20T01:31:00;99193.56;;;4.96;100.00
77685;BME280;66844;46.092;18.268;2023-12-20T01:31:32;99187.28;;;5.00;100.00
77685;BME280;66844;46.092;18.268;2023-12-20T01:32:05;99186.31;;;5.02;100.00
77685;BME280;66844;46.092;18.268;2023-12-20T01:32:37;99189.97;;;4.98;100.00
77685;BME280;66844;46.092;18.268;2023-12-20T01:33:09;99176.81;;;4.98;100.00
77685;BME280;66844;46.092;18.268;2023-12-20T01:33:41;99176.81;;;4.98;100.00
77685;BME280;66844;46.092;18.268;2023-12-20T01:34:13;99182.00;;;5.00;100.00
77685;BME280;66844;46.092;18.268;2023-12-20T01:34:45;99172.41;;;4.99;100.00
77685;BME280;66844;46.092;18.268;2023-12-20T01:35:17;99178.41;;;5.02;100.00
77685;BME280;66844;46.092;18.268;2023-12-20T01:35:49;99178.41;;;5.02;100.00
77685;BME280;66844;46.092;18.268;2023-12-20T01:36:21;99176.66;;;5.01;100.00
77685;BME280;66844;46.092;18.268;2023-12-20T01:36:53;99172.25;;;5.02;100.00
77685;BME280;66844;46.092;18.268;2023-12-20T01:37:25;99172.31;;;5.00;100.00
77685;BME280;66844;46.092;18.268;2023-12-20T01:37:58;99172.31;;;5.00;100.00
77685;BME280;66844;46.092;18.268;2023-12-20T01:38:30;99178.44;;;5.01;100.00
77685;BME280;66844;46.092;18.268;2023-12-20T01:39:02;99174.03;;;5.01;100.00
77685;BME280;66844;46.092;18.268;2023-12-20T01:39:40;99174.78;;;5.05;100.00
77685;BME280;66844;46.092;18.268;2023-12-20T01:40:12;99172.19;;;5.03;100.00
77685;BME280;66844;46.092;18.268;2023-12-20T01:40:44;99173.13;;;5.02;100.00
77685;BME280;66844;46.092;18.268;2023-12-20T01:41:16;99177.59;;;5.00;100.00
77685;BME280;66844;46.092;18.268;2023-12-20T01:41:48;99172.31;;;5.00;100.00
77685;BME280;66844;46.092;18.268;2023-12-20T01:42:20;99171.53;;;4.98;100.00
77685;BME280;66844;46.092;18.268;2023-12-20T01:43:00;99167.16;;;4.97;100.00
77685;BME280;66844;46.092;18.268;2023-12-20T01:43:33;99170.66;;;4.98;100.00
77685;BME280;66844;46.092;18.268;2023-12-20T01:44:20;99164.53;;;4.97;100.00
77685;BME280;66844;46.092;18.268;2023-12-20T01:44:52;99163.72;;;4.95;100.00
77685;BME280;66844;46.092;18.268;2023-12-20T01:45:24;99164.78;;;4.91;100.00
77685;BME280;66844;46.092;18.268;2023-12-20T01:46:00;99165.75;;;4.88;100.00
77685;BME280;66844;46.092;18.268;2023-12-20T01:46:32;99159.69;;;4.86;100.00
77685;BME280;66844;46.092;18.268;2023-12-20T01:47:04;99163.66;;;4.97;100.00
77685;BME280;66844;46.092;18.268;2023-12-20T01:47:36;99159.25;;;4.97;100.00
77685;BME280;66844;46.092;18.268;2023-12-20T01:48:09;99166.19;;;5.00;100.00
77685;BME280;66844;46.092;18.268;2023-12-20T01:48:42;99157.34;;;5.01;100.00
77685;BME280;66844;46.092;18.268;2023-12-20T01:49:15;99159.94;;;5.02;100.00
77685;BME280;66844;46.092;18.268;2023-12-20T01:49:49;99163.41;;;5.03;100.00
77685;BME280;66844;46.092;18.268;2023-12-20T01:50:21;99153.72;;;5.03;100.00
77685;BME280;66844;46.092;18.268;2023-12-20T01:50:54;99152.88;;;5.03;100.00
77685;BME280;66844;46.092;18.268;2023-12-20T01:51:27;99154.69;;;5.02;100.00
77685;BME280;66844;46.092;18.268;2023-12-20T01:51:59;99153.72;;;5.03;100.00
77685;BME280;66844;46.092;18.268;2023-12-20T01:52:32;99151.09;;;5.03;100.00
77685;BME280;66844;46.092;18.268;2023-12-20T01:53:07;99147.53;;;5.04;100.00
77685;BME280;66844;46.092;18.268;2023-12-20T01:53:41;99153.56;;;5.08;100.00
77685;BME280;66844;46.092;18.268;2023-12-20T01:54:14;99144.72;;;5.09;100.00
77685;BME280;66844;46.092;18.268;2023-12-20T01:54:47;99142.00;;;5.10;100.00
77685;BME280;66844;46.092;18.268;2023-12-20T01:55:20;99146.38;;;5.11;100.00
77685;BME280;66844;46.092;18.268;2023-12-20T01:55:55;99143.00;;;5.08;100.00
77685;BME280;66844;46.092;18.268;2023-12-20T01:56:28;99141.41;;;5.04;100.00
77685;BME280;66844;46.092;18.268;2023-12-20T01:57:01;99143.91;;;5.07;100.00
77685;BME280;66844;46.092;18.268;2023-12-20T01:57:34;99144.84;;;5.06;100.00
77685;BME280;66844;46.092;18.268;2023-12-20T01:58:08;99139.78;;;5.01;100.00
77685;BME280;66844;46.092;18.268;2023-12-20T01:58:44;99140.63;;;5.02;100.00
77685;BME280;66844;46.092;18.268;2023-12-20T01:59:20;99145.09;;;5.00;100.00
77685;BME280;66844;46.092;18.268;2023-12-20T01:59:52;99133.75;;;4.98;100.00
77685;BME280;66844;46.092;18.268;2023-12-20T02:00:26;99142.31;;;5.03;100.00
77685;BME280;66844;46.092;18.268;2023-12-20T02:00:59;99139.63;;;5.04;100.00
77685;BME280;66844;46.092;18.268;2023-12-20T02:01:32;99130.94;;;5.02;100.00
77685;BME280;66844;46.092;18.268;2023-12-20T02:02:04;99139.91;;;4.98;100.00
77685;BME280;66844;46.092;18.268;2023-12-20T02:02:39;99127.03;;;4.91;100.00
77685;BME280;66844;46.092;18.268;2023-12-20T02:03:11;99119.31;;;4.86;100.00
77685;BME280;66844;46.092;18.268;2023-12-20T02:03:44;99134.19;;;4.87;100.00
77685;BME280;66844;46.092;18.268;2023-12-20T02:04:16;99128.94;;;4.87;100.00
77685;BME280;66844;46.092;18.268;2023-12-20T02:04:49;99129.84;;;4.86;100.00
77685;BME280;66844;46.092;18.268;2023-12-20T02:05:24;99128.97;;;4.85;100.00
77685;BME280;66844;46.092;18.268;2023-12-20T02:05:57;99122.13;;;4.81;100.00
77685;BME280;66844;46.092;18.268;2023-12-20T02:06:30;99120.38;;;4.80;100.00
77685;BME280;66844;46.092;18.268;2023-12-20T02:07:07;99130.94;;;4.80;100.00
77685;BME280;66844;46.092;18.268;2023-12-20T02:07:39;99130.16;;;4.78;100.00
77685;BME280;66844;46.092;18.268;2023-12-20T02:08:11;99124.06;;;4.76;100.00
77685;BME280;66844;46.092;18.268;2023-12-20T02:08:43;99125.00;;;4.75;100.00
77685;BME280;66844;46.092;18.268;2023-12-20T02:09:15;99126.69;;;4.76;100.00
77685;BME280;66844;46.092;18.268;2023-12-20T02:09:47;99129.25;;;4.79;100.00
77685;BME280;66844;46.092;18.268;2023-12-20T02:10:19;99123.97;;;4.79;100.00
77685;BME280;66844;46.092;18.268;2023-12-20T02:10:52;99121.44;;;4.76;100.00
77685;BME280;66844;46.092;18.268;2023-12-20T02:11:25;99120.66;;;4.74;100.00
77685;BME280;66844;46.092;18.268;2023-12-20T02:11:57;99125.78;;;4.77;100.00
77685;BME280;66844;46.092;18.268;2023-12-20T02:12:29;99121.44;;;4.76;100.00
77685;BME280;66844;46.092;18.268;2023-12-20T02:13:01;99121.63;;;4.72;100.00
77685;BME280;66844;46.092;18.268;2023-12-20T02:13:33;99123.34;;;4.73;100.00
77685;BME280;66844;46.092;18.268;2023-12-20T02:14:05;99121.56;;;4.73;100.00
77685;BME280;66844;46.092;18.268;2023-12-20T02:14:37;99114.66;;;4.71;100.00
77685;BME280;66844;46.092;18.268;2023-12-20T02:15:09;99118.94;;;4.73;100.00
77685;BME280;66844;46.092;18.268;2023-12-20T02:15:41;99118.88;;;4.75;100.00
77685;BME280;66844;46.092;18.268;2023-12-20T02:16:15;99120.53;;;4.77;100.00
77685;BME280;66844;46.092;18.268;2023-12-20T02:16:48;99109.31;;;4.72;100.00
77685;BME280;66844;46.092;18.268;2023-12-20T02:17:20;99111.97;;;4.72;100.00
77685;BME280;66844;46.092;18.268;2023-12-20T02:17:52;99112.78;;;4.73;100.00
77685;BME280;66844;46.092;18.268;2023-12-20T02:18:25;99111.03;;;4.73;100.00
77685;BME280;66844;46.092;18.268;2023-12-20T02:18:57;99112.00;;;4.71;100.00
77685;BME280;66844;46.092;18.268;2023-12-20T02:19:29;99103.50;;;4.64;100.00
77685;BME280;66844;46.092;18.268;2023-12-20T02:20:02;99117.22;;;4.72;100.00
77685;BME280;66844;46.092;18.268;2023-12-20T02:20:34;99112.91;;;4.70;100.00
77685;BME280;66844;46.092;18.268;2023-12-20T02:21:06;99106.06;;;4.66;100.00
77685;BME280;66844;46.092;18.268;2023-12-20T02:21:38;99104.38;;;4.65;100.00
77685;BME280;66844;46.092;18.268;2023-12-20T02:22:12;99107.97;;;4.62;100.00
77685;BME280;66844;46.092;18.268;2023-12-20T02:22:44;99101.97;;;4.59;100.00
77685;BME280;66844;46.092;18.268;2023-12-20T02:23:17;99101.22;;;4.55;100.00
77685;BME280;66844;46.092;18.268;2023-12-20T02:23:49;99099.56;;;4.53;100.00
77685;BME280;66844;46.092;18.268;2023-12-20T02:24:20;99103.97;;;4.52;100.00
77685;BME280;66844;46.092;18.268;2023-12-20T02:24:52;99096.13;;;4.51;100.00
77685;BME280;66844;46.092;18.268;2023-12-20T02:25:24;99106.63;;;4.52;100.00
77685;BME280;66844;46.092;18.268;2023-12-20T02:25:56;99100.66;;;4.47;100.00
77685;BME280;66844;46.092;18.268;2023-12-20T02:26:28;99098.03;;;4.47;100.00
77685;BME280;66844;46.092;18.268;2023-12-20T02:27:00;99095.50;;;4.44;100.00
77685;BME280;66844;46.092;18.268;2023-12-20T02:27:33;99098.03;;;4.47;100.00
77685;BME280;66844;46.092;18.268;2023-12-20T02:28:06;99098.09;;;4.46;100.00
77685;BME280;66844;46.092;18.268;2023-12-20T02:28:38;99100.66;;;4.47;100.00
77685;BME280;66844;46.092;18.268;2023-12-20T02:29:10;99092.88;;;4.44;100.00
77685;BME280;66844;46.092;18.268;2023-12-20T02:29:42;99089.50;;;4.40;100.00
77685;BME280;66844;46.092;18.268;2023-12-20T02:30:14;99095.78;;;4.38;100.00
77685;BME280;66844;46.092;18.268;2023-12-20T02:30:46;99086.09;;;4.38;100.00
77685;BME280;66844;46.092;18.268;2023-12-20T02:31:21;99091.38;;;4.38;100.00
77685;BME280;66844;46.092;18.268;2023-12-20T02:31:54;99098.28;;;4.41;100.00
77685;BME280;66844;46.092;18.268;2023-12-20T02:32:26;99096.50;;;4.42;100.00
77685;BME280;66844;46.092;18.268;2023-12-20T02:33:00;99092.16;;;4.40;100.00
77685;BME280;66844;46.092;18.268;2023-12-20T02:33:33;99089.47;;;4.42;100.00
77685;BME280;66844;46.092;18.268;2023-12-20T02:34:04;99089.47;;;4.42;100.00
77685;BME280;66844;46.092;18.268;2023-12-20T02:34:36;99085.16;;;4.39;100.00
77685;BME280;66844;46.092;18.268;2023-12-20T02:35:09;99084.25;;;4.40;100.00
77685;BME280;66844;46.092;18.268;2023-12-20T02:35:41;99080.75;;;4.40;100.00
77685;BME280;66844;46.092;18.268;2023-12-20T02:36:13;99084.97;;;4.44;100.00
77685;BME280;66844;46.092;18.268;2023-12-20T02:36:45;99087.56;;;4.46;100.00
77685;BME280;66844;46.092;18.268;2023-12-20T02:37:17;99084.06;;;4.45;100.00
77685;BME280;66844;46.092;18.268;2023-12-20T02:37:49;99086.88;;;4.40;100.00
77685;BME280;66844;46.092;18.268;2023-12-20T02:38:21;99085.25;;;4.38;100.00
77685;BME280;66844;46.092;18.268;2023-12-20T02:38:53;99087.91;;;4.36;100.00
77685;BME280;66844;46.092;18.268;2023-12-20T02:39:25;99089.69;;;4.36;100.00
77685;BME280;66844;46.092;18.268;2023-12-20T02:39:57;99084.41;;;4.36;100.00
77685;BME280;66844;46.092;18.268;2023-12-20T02:40:29;99085.25;;;4.38;100.00
77685;BME280;66844;46.092;18.268;2023-12-20T02:41:01;99085.16;;;4.39;100.00
77685;BME280;66844;46.092;18.268;2023-12-20T02:41:33;99087.91;;;4.36;100.00
77685;BME280;66844;46.092;18.268;2023-12-20T02:42:05;99088.81;;;4.35;100.00
77685;BME280;66844;46.092;18.268;2023-12-20T02:42:36;99085.41;;;4.33;100.00
77685;BME280;66844;46.092;18.268;2023-12-20T02:43:08;99084.63;;;4.31;100.00
77685;BME280;66844;46.092;18.268;2023-12-20T02:43:40;99082.81;;;4.32;100.00
77685;BME280;66844;46.092;18.268;2023-12-20T02:44:12;99082.00;;;4.31;100.00
77685;BME280;66844;46.092;18.268;2023-12-20T02:44:44;99078.66;;;4.26;100.00
77685;BME280;66844;46.092;18.268;2023-12-20T02:45:16;99075.22;;;4.24;100.00
77685;BME280;66844;46.092;18.268;2023-12-20T02:45:48;99075.31;;;4.23;100.00
77685;BME280;66844;46.092;18.268;2023-12-20T02:46:20;99077.94;;;4.23;100.00
77685;BME280;66844;46.092;18.268;2023-12-20T02:46:52;99079.56;;;4.25;100.00
77685;BME280;66844;46.092;18.268;2023-12-20T02:47:24;99077.94;;;4.23;100.00
77685;BME280;66844;46.092;18.268;2023-12-20T02:47:56;99071.84;;;4.21;100.00
77685;BME280;66844;46.092;18.268;2023-12-20T02:48:29;99072.72;;;4.21;100.00
77685;BME280;66844;46.092;18.268;2023-12-20T02:49:01;99073.66;;;4.20;100.00
77685;BME280;66844;46.092;18.268;2023-12-20T02:49:33;99070.94;;;4.22;100.00